sensor_id;sensor_type;location;lat;lon;timestamp;pressure;altitude;pressure_sealevel;temperature;humidity
84026;BME280;74110;45.660;25.582;2024-01-27T00:01:07;95382.51;;;0.10;69.06
84026;BME280;74110;45.660;25.582;2024-01-27T00:03:44;95381.27;;;0.11;69.18
84026;BME280;74110;45.660;25.582;2024-01-27T00:06:14;95377.27;;;0.10;69.11
84026;BME280;74110;45.660;25.582;2024-01-27T00:08:43;95376.52;;;0.17;68.72
84026;BME280;74110;45.660;25.582;2024-01-27T00:11:13;95374.96;;;0.21;68.61
84026;BME280;74110;45.660;25.582;2024-01-27T00:13:41;95368.64;;;0.24;68.31
84026;BME280;74110;45.660;25.582;2024-01-27T00:16:09;95360.41;;;0.30;67.79
84026;BME280;74110;45.660;25.582;2024-01-27T00:18:38;95358.13;;;0.36;67.73
84026;BME280;74110;45.660;25.582;2024-01-27T00:21:08;95360.28;;;0.41;67.40
84026;BME280;74110;45.660;25.582;2024-01-27T00:23:37;95358.74;;;0.45;67.45
84026;BME280;74110;45.660;25.582;2024-01-27T00:26:04;95359.05;;;0.50;67.28
84026;BME280;74110;45.660;25.582;2024-01-27T00:28:33;95362.59;;;0.54;66.94
84026;BME280;74110;45.660;25.582;2024-01-27T00:31:01;95362.84;;;0.58;67.12
84026;BME280;74110;45.660;25.582;2024-01-27T00:33:30;95363.89;;;0.62;66.89
84026;BME280;74110;45.660;25.582;2024-01-27T00:35:59;95361.28;;;0.64;66.57
84026;BME280;74110;45.660;25.582;2024-01-27T00:38:27;95355.15;;;0.71;66.69
84026;BME280;74110;45.660;25.582;2024-01-27T00:40:57;95350.01;;;0.78;66.48
84026;BME280;74110;45.660;25.582;2024-01-27T00:43:26;95346.73;;;0.82;66.26
84026;BME280;74110;45.660;25.582;2024-01-27T00:45:55;95347.42;;;0.88;66.62
84026;BME280;74110;45.660;25.582;2024-01-27T00:48:23;95341.01;;;0.89;66.26
84026;BME280;74110;45.660;25.582;2024-01-27T00:50:52;95341.56;;;0.83;66.28
84026;BME280;74110;45.660;25.582;2024-01-27T00:53:20;95346.75;;;0.86;66.62
84026;BME280;74110;45.660;25.582;2024-01-27T00:55:49;95340.17;;;0.84;66.52
84026;BME280;74110;45.660;25.582;2024-01-27T00:58:18;95339.72;;;0.85;66.30
84026;BME280;74110;45.660;25.582;2024-01-27T01:00:48;95346.60;;;0.81;66.72
84026;BME280;74110;45.660;25.582;2024-01-27T01:03:17;95347.77;;;0.85;67.01
84026;BME280;74110;45.660;25.582;2024-01-27T01:05:47;95347.01;;;0.85;66.78
84026;BME280;74110;45.660;25.582;2024-01-27T01:08:16;95347.94;;;0.85;66.92
84026;BME280;74110;45.660;25.582;2024-01-27T01:10:44;95341.69;;;0.83;66.99
84026;BME280;74110;45.660;25.582;2024-01-27T01:13:13;95345.13;;;0.83;66.82
84026;BME280;74110;45.660;25.582;2024-01-27T01:15:42;95341.13;;;0.79;67.22
84026;BME280;74110;45.660;25.582;2024-01-27T01:18:11;95344.96;;;0.80;67.17
84026;BME280;74110;45.660;25.582;2024-01-27T01:20:43;95345.91;;;0.83;67.11
84026;BME280;74110;45.660;25.582;2024-01-27T01:23:12;95343.95;;;0.85;66.72
84026;BME280;74110;45.660;25.582;2024-01-27T01:25:42;95346.55;;;0.87;66.84
84026;BME280;74110;45.660;25.582;2024-01-27T01:28:14;95347.40;;;0.87;66.81
84026;BME280;74110;45.660;25.582;2024-01-27T01:30:43;95347.45;;;0.95;67.17
84026;BME280;74110;45.660;25.582;2024-01-27T01:33:12;95348.70;;;0.98;67.07
84026;BME280;74110;45.660;25.582;2024-01-27T01:35:43;95353.30;;;0.89;67.18
84026;BME280;74110;45.660;25.582;2024-01-27T01:38:12;95352.64;;;0.71;67.59
84026;BME280;74110;45.660;25.582;2024-01-27T01:40:41;95347.33;;;0.67;68.25
84026;BME280;74110;45.660;25.582;2024-01-27T01:43:10;95338.16;;;0.67;68.19
84026;BME280;74110;45.660;25.582;2024-01-27T01:45:48;95331.64;;;0.65;68.32
84026;BME280;74110;45.660;25.582;2024-01-27T01:48:18;95320.12;;;0.64;68.36
84026;BME280;74110;45.660;25.582;2024-01-27T01:50:47;95317.21;;;0.66;68.06
84026;BME280;74110;45.660;25.582;2024-01-27T01:53:15;95315.98;;;0.65;68.74
84026;BME280;74110;45.660;25.582;2024-01-27T01:55:43;95308.69;;;0.66;68.40
84026;BME280;74110;45.660;25.582;2024-01-27T01:58:11;95296.56;;;0.70;68.41
84026;BME280;74110;45.660;25.582;2024-01-27T02:00:39;95281.57;;;0.82;68.60
84026;BME280;74110;45.660;25.582;2024-01-27T02:03:12;95271.83;;;0.93;68.21
84026;BME280;74110;45.660;25.582;2024-01-27T02:05:40;95275.43;;;1.01;67.81
84026;BME280;74110;45.660;25.582;2024-01-27T02:08:08;95270.59;;;1.09;67.69
84026;BME280;74110;45.660;25.582;2024-01-27T02:10:41;95261.69;;;1.15;67.51
84026;BME280;74110;45.660;25.582;2024-01-27T02:13:20;95253.21;;;1.21;67.50
84026;BME280;74110;45.660;25.582;2024-01-27T02:15:51;95243.19;;;1.27;67.17
84026;BME280;74110;45.660;25.582;2024-01-27T02:18:19;95237.73;;;1.30;66.24
84026;BME280;74110;45.660;25.582;2024-01-27T02:20:50;95235.32;;;1.26;65.73
84026;BME280;74110;45.660;25.582;2024-01-27T02:23:19;95221.87;;;1.23;65.21
84026;BME280;74110;45.660;25.582;2024-01-27T02:25:46;95216.96;;;1.24;64.87
84026;BME280;74110;45.660;25.582;2024-01-27T02:28:15;95212.41;;;1.28;64.34
84026;BME280;74110;45.660;25.582;2024-01-27T02:30:43;95206.87;;;1.35;64.64
84026;BME280;74110;45.660;25.582;2024-01-27T02:33:11;95207.43;;;1.41;64.10
84026;BME280;74110;45.660;25.582;2024-01-27T02:35:39;95208.58;;;1.45;63.97
84026;BME280;74110;45.660;25.582;2024-01-27T02:38:07;95204.86;;;1.44;63.48
84026;BME280;74110;45.660;25.582;2024-01-27T02:40:35;95204.58;;;1.47;63.65
84026;BME280;74110;45.660;25.582;2024-01-27T02:43:03;95200.63;;;1.52;63.65
84026;BME280;74110;45.660;25.582;2024-01-27T02:45:31;95198.71;;;1.54;63.21
84026;BME280;74110;45.660;25.582;2024-01-27T02:48:02;95197.26;;;1.55;63.21
84026;BME280;74110;45.660;25.582;2024-01-27T02:50:30;95195.36;;;1.55;63.32
84026;BME280;74110;45.660;25.582;2024-01-27T02:52:58;95186.89;;;1.52;63.77
84026;BME280;74110;45.660;25.582;2024-01-27T02:55:27;95181.55;;;1.52;63.65
84026;BME280;74110;45.660;25.582;2024-01-27T02:57:55;95179.48;;;1.54;63.85
84026;BME280;74110;45.660;25.582;2024-01-27T03:00:23;95178.27;;;1.53;63.44
84026;BME280;74110;45.660;25.582;2024-01-27T03:02:52;95176.48;;;1.49;63.65
84026;BME280;74110;45.660;25.582;2024-01-27T03:05:23;95169.16;;;1.50;64.18
84026;BME280;74110;45.660;25.582;2024-01-27T03:07:51;95164.36;;;1.44;64.26
84026;BME280;74110;45.660;25.582;2024-01-27T03:10:21;95156.87;;;1.44;64.37
84026;BME280;74110;45.660;25.582;2024-01-27T03:12:49;95155.36;;;1.45;64.48
84026;BME280;74110;45.660;25.582;2024-01-27T03:15:17;95153.55;;;1.48;64.87
84026;BME280;74110;45.660;25.582;2024-01-27T03:17:46;95156.15;;;1.38;65.46
84026;BME280;74110;45.660;25.582;2024-01-27T03:20:14;95154.88;;;1.29;65.93
84026;BME280;74110;45.660;25.582;2024-01-27T03:22:43;95159.29;;;1.19;66.78
84026;BME280;74110;45.660;25.582;2024-01-27T03:25:11;95163.77;;;1.08;66.68
84026;BME280;74110;45.660;25.582;2024-01-27T03:27:39;95159.83;;;0.83;68.08
84026;BME280;74110;45.660;25.582;2024-01-27T03:30:09;95156.59;;;0.59;68.06
84026;BME280;74110;45.660;25.582;2024-01-27T03:32:45;95153.91;;;0.50;68.69
84026;BME280;74110;45.660;25.582;2024-01-27T03:35:15;95149.81;;;0.34;69.79
84026;BME280;74110;45.660;25.582;2024-01-27T03:37:43;95146.20;;;0.22;70.07
84026;BME280;74110;45.660;25.582;2024-01-27T03:40:13;95144.67;;;0.16;69.89
84026;BME280;74110;45.660;25.582;2024-01-27T03:42:42;95143.56;;;0.09;70.21
84026;BME280;74110;45.660;25.582;2024-01-27T03:45:11;95139.67;;;0.19;69.68
84026;BME280;74110;45.660;25.582;2024-01-27T03:47:41;95136.89;;;0.21;70.18
84026;BME280;74110;45.660;25.582;2024-01-27T03:50:11;95140.89;;;0.28;69.91
84026;BME280;74110;45.660;25.582;2024-01-27T03:52:41;95141.53;;;0.30;70.33
84026;BME280;74110;45.660;25.582;2024-01-27T03:55:11;95143.86;;;0.31;70.11
84026;BME280;74110;45.660;25.582;2024-01-27T03:57:39;95140.68;;;0.32;70.32
84026;BME280;74110;45.660;25.582;2024-01-27T04:00:07;95140.98;;;0.23;70.60
84026;BME280;74110;45.660;25.582;2024-01-27T04:02:36;95142.40;;;0.17;70.93
84026;BME280;74110;45.660;25.582;2024-01-27T04:05:06;95148.90;;;0.24;71.07
84026;BME280;74110;45.660;25.582;2024-01-27T04:07:33;95143.98;;;0.29;70.73
84026;BME280;74110;45.660;25.582;2024-01-27T04:10:04;95149.34;;;0.31;70.72
84026;BME280;74110;45.660;25.582;2024-01-27T04:12:42;95147.21;;;0.31;70.49
84026;BME280;74110;45.660;25.582;2024-01-27T04:15:11;95151.36;;;0.36;70.04
84026;BME280;74110;45.660;25.582;2024-01-27T04:17:40;95150.79;;;0.33;70.58
84026;BME280;74110;45.660;25.582;2024-01-27T04:20:09;95156.81;;;0.28;71.05
84026;BME280;74110;45.660;25.582;2024-01-27T04:22:38;95155.82;;;0.22;71.27
84026;BME280;74110;45.660;25.582;2024-01-27T04:25:09;95153.38;;;0.19;71.51
84026;BME280;74110;45.660;25.582;2024-01-27T04:27:38;95154.05;;;0.19;72.07
84026;BME280;74110;45.660;25.582;2024-01-27T04:30:16;95149.36;;;0.23;72.53
84026;BME280;74110;45.660;25.582;2024-01-27T04:32:45;95150.17;;;0.24;72.27
84026;BME280;74110;45.660;25.582;2024-01-27T04:35:13;95146.69;;;0.25;73.07
84026;BME280;74110;45.660;25.582;2024-01-27T04:37:42;95141.05;;;0.31;73.07
84026;BME280;74110;45.660;25.582;2024-01-27T04:40:19;95140.91;;;0.45;73.27
84026;BME280;74110;45.660;25.582;2024-01-27T04:42:48;95140.63;;;0.50;73.38
84026;BME280;74110;45.660;25.582;2024-01-27T04:45:16;95140.98;;;0.58;73.19
84026;BME280;74110;45.660;25.582;2024-01-27T04:47:45;95142.83;;;0.65;73.27
84026;BME280;74110;45.660;25.582;2024-01-27T04:50:13;95145.14;;;0.78;73.18
84026;BME280;74110;45.660;25.582;2024-01-27T04:52:41;95147.70;;;0.88;73.29
84026;BME280;74110;45.660;25.582;2024-01-27T04:55:11;95153.51;;;0.98;72.98
84026;BME280;74110;45.660;25.582;2024-01-27T04:57:40;95162.14;;;1.04;73.01
84026;BME280;74110;45.660;25.582;2024-01-27T05:00:08;95167.91;;;1.05;73.20
84026;BME280;74110;45.660;25.582;2024-01-27T05:02:42;95170.57;;;1.14;72.84
84026;BME280;74110;45.660;25.582;2024-01-27T05:05:09;95175.16;;;1.23;73.30
84026;BME280;74110;45.660;25.582;2024-01-27T05:07:38;95178.65;;;1.29;73.24
84026;BME280;74110;45.660;25.582;2024-01-27T05:10:10;95178.17;;;1.29;73.37
84026;BME280;74110;45.660;25.582;2024-01-27T05:12:40;95177.35;;;1.26;73.13
84026;BME280;74110;45.660;25.582;2024-01-27T05:15:10;95177.77;;;1.22;73.91
84026;BME280;74110;45.660;25.582;2024-01-27T05:17:39;95174.84;;;1.26;73.82
84026;BME280;74110;45.660;25.582;2024-01-27T05:20:08;95181.24;;;1.31;73.99
84026;BME280;74110;45.660;25.582;2024-01-27T05:22:37;95179.02;;;1.25;74.18
84026;BME280;74110;45.660;25.582;2024-01-27T05:25:06;95182.80;;;1.23;74.18
84026;BME280;74110;45.660;25.582;2024-01-27T05:27:37;95179.10;;;1.21;74.20
84026;BME280;74110;45.660;25.582;2024-01-27T05:30:08;95184.56;;;1.22;74.02
84026;BME280;74110;45.660;25.582;2024-01-27T05:32:38;95180.09;;;1.24;74.22
84026;BME280;74110;45.660;25.582;2024-01-27T05:35:06;95178.73;;;1.28;73.98
84026;BME280;74110;45.660;25.582;2024-01-27T05:37:38;95184.23;;;1.34;74.09
84026;BME280;74110;45.660;25.582;2024-01-27T05:40:07;95181.25;;;1.35;73.87
84026;BME280;74110;45.660;25.582;2024-01-27T05:42:35;95186.76;;;1.35;73.97
84026;BME280;74110;45.660;25.582;2024-01-27T05:45:04;95183.20;;;1.39;74.01
84026;BME280;74110;45.660;25.582;2024-01-27T05:47:33;95180.67;;;1.42;73.93
84026;BME280;74110;45.660;25.582;2024-01-27T05:50:04;95180.86;;;1.44;74.27
84026;BME280;74110;45.660;25.582;2024-01-27T05:52:35;95181.48;;;1.43;74.45
84026;BME280;74110;45.660;25.582;2024-01-27T05:55:03;95182.75;;;1.41;74.67
84026;BME280;74110;45.660;25.582;2024-01-27T05:57:35;95181.76;;;1.37;75.28
84026;BME280;74110;45.660;25.582;2024-01-27T06:00:04;95180.89;;;1.42;75.17
84026;BME280;74110;45.660;25.582;2024-01-27T06:02:38;95182.58;;;1.43;75.53
84026;BME280;74110;45.660;25.582;2024-01-27T06:05:07;95181.96;;;1.48;75.50
84026;BME280;74110;45.660;25.582;2024-01-27T06:07:40;95184.94;;;1.51;75.65
84026;BME280;74110;45.660;25.582;2024-01-27T06:10:09;95190.55;;;1.54;75.45
84026;BME280;74110;45.660;25.582;2024-01-27T06:12:37;95188.55;;;1.58;75.14
84026;BME280;74110;45.660;25.582;2024-01-27T06:15:07;95191.61;;;1.64;75.46
84026;BME280;74110;45.660;25.582;2024-01-27T06:17:37;95194.73;;;1.74;75.39
84026;BME280;74110;45.660;25.582;2024-01-27T06:20:07;95195.46;;;1.73;75.61
84026;BME280;74110;45.660;25.582;2024-01-27T06:22:35;95194.70;;;1.63;76.29
84026;BME280;74110;45.660;25.582;2024-01-27T06:25:03;95199.02;;;1.57;77.28
84026;BME280;74110;45.660;25.582;2024-01-27T06:27:32;95201.98;;;1.63;75.87
84026;BME280;74110;45.660;25.582;2024-01-27T06:30:01;95209.62;;;1.69;76.44
84026;BME280;74110;45.660;25.582;2024-01-27T06:32:29;95206.73;;;1.74;76.70
84026;BME280;74110;45.660;25.582;2024-01-27T06:34:58;95209.27;;;1.75;76.75
84026;BME280;74110;45.660;25.582;2024-01-27T06:37:27;95210.17;;;1.80;76.53
84026;BME280;74110;45.660;25.582;2024-01-27T06:39:55;95213.70;;;1.85;76.33
84026;BME280;74110;45.660;25.582;2024-01-27T06:42:24;95221.59;;;1.90;76.68
84026;BME280;74110;45.660;25.582;2024-01-27T06:44:52;95225.88;;;1.94;75.98
84026;BME280;74110;45.660;25.582;2024-01-27T06:47:21;95233.37;;;2.01;75.37
84026;BME280;74110;45.660;25.582;2024-01-27T06:49:49;95236.50;;;2.03;75.53
84026;BME280;74110;45.660;25.582;2024-01-27T06:52:19;95241.10;;;2.07;74.74
84026;BME280;74110;45.660;25.582;2024-01-27T06:54:46;95242.27;;;2.12;75.52
84026;BME280;74110;45.660;25.582;2024-01-27T06:57:22;95248.11;;;2.18;75.54
84026;BME280;74110;45.660;25.582;2024-01-27T06:59:51;95246.88;;;2.20;76.07
84026;BME280;74110;45.660;25.582;2024-01-27T07:02:27;95256.52;;;2.16;75.95
84026;BME280;74110;45.660;25.582;2024-01-27T07:04:58;95254.23;;;1.92;77.16
84026;BME280;74110;45.660;25.582;2024-01-27T07:07:28;95256.00;;;1.91;77.08
84026;BME280;74110;45.660;25.582;2024-01-27T07:09:56;95256.80;;;1.85;77.93
84026;BME280;74110;45.660;25.582;2024-01-27T07:12:24;95259.95;;;1.75;78.48
84026;BME280;74110;45.660;25.582;2024-01-27T07:14:53;95261.38;;;1.75;78.87
84026;BME280;74110;45.660;25.582;2024-01-27T07:17:28;95258.91;;;1.76;78.76
84026;BME280;74110;45.660;25.582;2024-01-27T07:19:56;95263.52;;;1.72;79.21
84026;BME280;74110;45.660;25.582;2024-01-27T07:22:30;95268.83;;;1.59;79.93
84026;BME280;74110;45.660;25.582;2024-01-27T07:24:58;95276.08;;;1.42;80.69
84026;BME280;74110;45.660;25.582;2024-01-27T07:27:27;95280.08;;;1.47;80.52
84026;BME280;74110;45.660;25.582;2024-01-27T07:29:56;95281.16;;;1.46;80.91
84026;BME280;74110;45.660;25.582;2024-01-27T07:32:25;95283.98;;;1.47;80.84
84026;BME280;74110;45.660;25.582;2024-01-27T07:34:53;95285.54;;;1.32;81.48
84026;BME280;74110;45.660;25.582;2024-01-27T07:37:22;95287.05;;;1.25;82.03
84026;BME280;74110;45.660;25.582;2024-01-27T07:39:51;95293.83;;;1.33;81.34
84026;BME280;74110;45.660;25.582;2024-01-27T07:42:20;95297.80;;;1.39;81.48
84026;BME280;74110;45.660;25.582;2024-01-27T07:44:48;95299.95;;;1.46;81.10
84026;BME280;74110;45.660;25.582;2024-01-27T07:47:17;95298.33;;;1.36;81.45
84026;BME280;74110;45.660;25.582;2024-01-27T07:49:47;95298.17;;;1.40;81.46
84026;BME280;74110;45.660;25.582;2024-01-27T07:52:17;95300.78;;;1.42;81.10
84026;BME280;74110;45.660;25.582;2024-01-27T07:54:47;95304.83;;;1.48;80.89
84026;BME280;74110;45.660;25.582;2024-01-27T07:57:14;95308.18;;;1.55;80.64
84026;BME280;74110;45.660;25.582;2024-01-27T07:59:43;95314.00;;;1.59;80.62
84026;BME280;74110;45.660;25.582;2024-01-27T08:02:11;95316.51;;;1.48;81.16
84026;BME280;74110;45.660;25.582;2024-01-27T08:04:40;95319.42;;;1.48;81.01
84026;BME280;74110;45.660;25.582;2024-01-27T08:07:08;95319.31;;;1.47;81.47
84026;BME280;74110;45.660;25.582;2024-01-27T08:09:42;95326.08;;;1.44;81.15
84026;BME280;74110;45.660;25.582;2024-01-27T08:12:09;95326.53;;;1.52;80.98
84026;BME280;74110;45.660;25.582;2024-01-27T08:14:38;95323.58;;;1.54;81.18
84026;BME280;74110;45.660;25.582;2024-01-27T08:17:06;95325.66;;;1.63;80.87
84026;BME280;74110;45.660;25.582;2024-01-27T08:19:35;95328.02;;;1.74;80.61
84026;BME280;74110;45.660;25.582;2024-01-27T08:22:02;95334.48;;;1.78;80.31
84026;BME280;74110;45.660;25.582;2024-01-27T08:24:32;95334.78;;;1.67;80.73
84026;BME280;74110;45.660;25.582;2024-01-27T08:26:59;95338.77;;;1.61;81.19
84026;BME280;74110;45.660;25.582;2024-01-27T08:29:29;95340.70;;;1.63;81.27
84026;BME280;74110;45.660;25.582;2024-01-27T08:31:58;95339.56;;;1.65;81.13
84026;BME280;74110;45.660;25.582;2024-01-27T08:34:27;95343.04;;;1.59;81.34
84026;BME280;74110;45.660;25.582;2024-01-27T08:37:01;95345.18;;;1.59;81.20
84026;BME280;74110;45.660;25.582;2024-01-27T08:39:30;95354.25;;;1.50;82.11
84026;BME280;74110;45.660;25.582;2024-01-27T08:41:59;95364.31;;;1.56;81.70
84026;BME280;74110;45.660;25.582;2024-01-27T08:44:29;95364.92;;;1.58;81.85
84026;BME280;74110;45.660;25.582;2024-01-27T08:46:58;95360.73;;;1.66;81.58
84026;BME280;74110;45.660;25.582;2024-01-27T08:49:29;95362.67;;;1.68;81.30
84026;BME280;74110;45.660;25.582;2024-01-27T08:51:58;95365.02;;;1.61;81.69
84026;BME280;74110;45.660;25.582;2024-01-27T08:54:27;95369.04;;;1.54;82.21
84026;BME280;74110;45.660;25.582;2024-01-27T08:56:55;95371.33;;;1.56;82.17
84026;BME280;74110;45.660;25.582;2024-01-27T08:59:24;95373.66;;;1.64;82.01
84026;BME280;74110;45.660;25.582;2024-01-27T09:01:51;95372.58;;;1.65;82.01
84026;BME280;74110;45.660;25.582;2024-01-27T09:04:21;95370.84;;;1.84;81.23
84026;BME280;74110;45.660;25.582;2024-01-27T09:06:50;95372.73;;;1.90;80.37
84026;BME280;74110;45.660;25.582;2024-01-27T09:09:18;95376.81;;;1.93;80.57
84026;BME280;74110;45.660;25.582;2024-01-27T09:11:47;95383.07;;;2.08;80.59
84026;BME280;74110;45.660;25.582;2024-01-27T09:14:18;95383.21;;;2.24;79.63
84026;BME280;74110;45.660;25.582;2024-01-27T09:16:45;95379.59;;;2.35;78.84
84026;BME280;74110;45.660;25.582;2024-01-27T09:19:15;95379.66;;;2.41;78.69
84026;BME280;74110;45.660;25.582;2024-01-27T09:21:43;95379.23;;;2.44;78.32
84026;BME280;74110;45.660;25.582;2024-01-27T09:24:11;95382.05;;;2.39;78.51
84026;BME280;74110;45.660;25.582;2024-01-27T09:26:44;95381.84;;;2.42;78.51
84026;BME280;74110;45.660;25.582;2024-01-27T09:29:12;95376.19;;;2.35;78.49
84026;BME280;74110;45.660;25.582;2024-01-27T09:31:40;95375.38;;;2.45;77.96
84026;BME280;74110;45.660;25.582;2024-01-27T09:34:11;95376.45;;;2.39;78.35
84026;BME280;74110;45.660;25.582;2024-01-27T09:36:38;95372.96;;;2.37;78.17
84026;BME280;74110;45.660;25.582;2024-01-27T09:39:06;95364.90;;;2.47;78.06
84026;BME280;74110;45.660;25.582;2024-01-27T09:41:37;95366.62;;;2.65;77.96
84026;BME280;74110;45.660;25.582;2024-01-27T09:44:05;95360.03;;;2.51;77.80
84026;BME280;74110;45.660;25.582;2024-01-27T09:46:34;95358.21;;;2.53;78.62
84026;BME280;74110;45.660;25.582;2024-01-27T09:49:02;95355.77;;;2.63;77.49
84026;BME280;74110;45.660;25.582;2024-01-27T09:51:31;95352.48;;;2.81;77.39
84026;BME280;74110;45.660;25.582;2024-01-27T09:54:00;95350.09;;;3.02;76.04
84026;BME280;74110;45.660;25.582;2024-01-27T09:56:28;95344.06;;;3.13;73.60
84026;BME280;74110;45.660;25.582;2024-01-27T09:58:58;95347.23;;;3.24;73.61
84026;BME280;74110;45.660;25.582;2024-01-27T10:01:27;95335.35;;;3.12;72.00
84026;BME280;74110;45.660;25.582;2024-01-27T10:03:57;95342.44;;;2.97;72.67
84026;BME280;74110;45.660;25.582;2024-01-27T10:06:26;95347.23;;;3.00;73.08
84026;BME280;74110;45.660;25.582;2024-01-27T10:08:55;95352.50;;;2.82;73.95
84026;BME280;74110;45.660;25.582;2024-01-27T10:11:24;95349.82;;;2.91;73.60
84026;BME280;74110;45.660;25.582;2024-01-27T10:13:55;95350.74;;;2.80;73.82
84026;BME280;74110;45.660;25.582;2024-01-27T10:16:28;95351.02;;;2.73;73.05
84026;BME280;74110;45.660;25.582;2024-01-27T10:19:01;95361.75;;;2.66;72.45
84026;BME280;74110;45.660;25.582;2024-01-27T10:21:29;95368.00;;;2.62;72.73
84026;BME280;74110;45.660;25.582;2024-01-27T10:23:57;95372.16;;;2.68;72.60
84026;BME280;74110;45.660;25.582;2024-01-27T10:26:31;95373.80;;;2.60;72.76
84026;BME280;74110;45.660;25.582;2024-01-27T10:29:00;95378.31;;;2.57;73.14
84026;BME280;74110;45.660;25.582;2024-01-27T10:31:34;95389.73;;;2.33;73.14
84026;BME280;74110;45.660;25.582;2024-01-27T10:34:03;95396.92;;;2.26;73.85
84026;BME280;74110;45.660;25.582;2024-01-27T10:36:40;95392.23;;;2.21;73.96
84026;BME280;74110;45.660;25.582;2024-01-27T10:39:21;95392.21;;;2.10;74.61
84026;BME280;74110;45.660;25.582;2024-01-27T10:41:53;95397.48;;;2.07;75.18
84026;BME280;74110;45.660;25.582;2024-01-27T10:44:23;95405.59;;;2.09;75.13
84026;BME280;74110;45.660;25.582;2024-01-27T10:46:53;95412.23;;;2.06;75.55
84026;BME280;74110;45.660;25.582;2024-01-27T10:49:23;95416.61;;;1.90;75.57
84026;BME280;74110;45.660;25.582;2024-01-27T10:51:56;95409.10;;;1.77;76.52
84026;BME280;74110;45.660;25.582;2024-01-27T10:54:26;95407.23;;;1.72;76.17
84026;BME280;74110;45.660;25.582;2024-01-27T10:56:57;95405.48;;;1.67;76.84
84026;BME280;74110;45.660;25.582;2024-01-27T10:59:27;95408.91;;;1.54;77.41
84026;BME280;74110;45.660;25.582;2024-01-27T11:01:57;95409.05;;;1.60;77.50
84026;BME280;74110;45.660;25.582;2024-01-27T11:04:26;95411.97;;;1.61;77.22
84026;BME280;74110;45.660;25.582;2024-01-27T11:06:56;95413.02;;;1.64;76.98
84026;BME280;74110;45.660;25.582;2024-01-27T11:09:25;95418.80;;;1.60;77.23
84026;BME280;74110;45.660;25.582;2024-01-27T11:11:54;95419.28;;;1.48;77.72
84026;BME280;74110;45.660;25.582;2024-01-27T11:14:26;95418.40;;;1.34;79.29
84026;BME280;74110;45.660;25.582;2024-01-27T11:16:56;95419.11;;;1.33;79.56
84026;BME280;74110;45.660;25.582;2024-01-27T11:19:26;95416.02;;;1.16;80.28
84026;BME280;74110;45.660;25.582;2024-01-27T11:22:03;95432.14;;;1.16;80.15
84026;BME280;74110;45.660;25.582;2024-01-27T11:24:32;95440.14;;;1.02;81.56
84026;BME280;74110;45.660;25.582;2024-01-27T11:27:05;95441.40;;;1.02;81.83
84026;BME280;74110;45.660;25.582;2024-01-27T11:29:34;95446.64;;;1.08;81.54
84026;BME280;74110;45.660;25.582;2024-01-27T11:32:04;95446.48;;;1.11;81.26
84026;BME280;74110;45.660;25.582;2024-01-27T11:34:45;95446.05;;;1.05;81.93
84026;BME280;74110;45.660;25.582;2024-01-27T11:37:17;95439.69;;;0.98;82.03
84026;BME280;74110;45.660;25.582;2024-01-27T11:39:47;95435.29;;;1.11;81.74
84026;BME280;74110;45.660;25.582;2024-01-27T11:42:16;95431.30;;;1.07;82.02
84026;BME280;74110;45.660;25.582;2024-01-27T11:44:46;95428.30;;;0.94;82.59
84026;BME280;74110;45.660;25.582;2024-01-27T11:47:18;95434.34;;;1.06;82.21
84026;BME280;74110;45.660;25.582;2024-01-27T11:49:52;95435.55;;;1.08;82.19
84026;BME280;74110;45.660;25.582;2024-01-27T11:52:22;95440.08;;;0.97;83.12
84026;BME280;74110;45.660;25.582;2024-01-27T11:54:54;95442.87;;;0.90;83.66
84026;BME280;74110;45.660;25.582;2024-01-27T11:57:22;95442.30;;;0.90;84.22
84026;BME280;74110;45.660;25.582;2024-01-27T11:59:52;95444.79;;;0.91;84.19
84026;BME280;74110;45.660;25.582;2024-01-27T12:02:21;95438.62;;;0.79;84.85
84026;BME280;74110;45.660;25.582;2024-01-27T12:04:51;95442.20;;;0.80;85.24
84026;BME280;74110;45.660;25.582;2024-01-27T12:07:20;95441.53;;;0.83;84.54
84026;BME280;74110;45.660;25.582;2024-01-27T12:09:50;95447.59;;;0.81;84.16
84026;BME280;74110;45.660;25.582;2024-01-27T12:12:20;95455.58;;;0.93;83.89
84026;BME280;74110;45.660;25.582;2024-01-27T12:14:51;95463.55;;;0.85;83.93
84026;BME280;74110;45.660;25.582;2024-01-27T12:17:21;95467.35;;;0.82;83.30
84026;BME280;74110;45.660;25.582;2024-01-27T12:19:52;95475.13;;;0.86;83.56
84026;BME280;74110;45.660;25.582;2024-01-27T12:25:08;95484.19;;;0.84;83.07
84026;BME280;74110;45.660;25.582;2024-01-27T12:27:41;95487.77;;;0.84;83.12
84026;BME280;74110;45.660;25.582;2024-01-27T12:30:10;95489.98;;;0.79;83.04
84026;BME280;74110;45.660;25.582;2024-01-27T12:32:39;95492.10;;;0.82;82.81
84026;BME280;74110;45.660;25.582;2024-01-27T12:35:08;95498.74;;;0.86;82.76
84026;BME280;74110;45.660;25.582;2024-01-27T12:37:38;95504.44;;;0.81;83.06
84026;BME280;74110;45.660;25.582;2024-01-27T12:40:20;95502.63;;;0.68;83.35
84026;BME280;74110;45.660;25.582;2024-01-27T12:42:51;95502.20;;;0.74;82.86
84026;BME280;74110;45.660;25.582;2024-01-27T12:45:19;95503.70;;;0.81;82.92
84026;BME280;74110;45.660;25.582;2024-01-27T12:47:48;95506.35;;;0.72;83.19
84026;BME280;74110;45.660;25.582;2024-01-27T12:50:17;95509.91;;;0.75;82.89
84026;BME280;74110;45.660;25.582;2024-01-27T12:52:45;95517.34;;;0.75;82.78
84026;BME280;74110;45.660;25.582;2024-01-27T12:55:14;95519.93;;;0.79;82.58
84026;BME280;74110;45.660;25.582;2024-01-27T12:57:44;95527.24;;;0.76;82.99
84026;BME280;74110;45.660;25.582;2024-01-27T13:00:13;95526.52;;;0.69;83.42
84026;BME280;74110;45.660;25.582;2024-01-27T13:02:43;95531.16;;;0.78;83.43
84026;BME280;74110;45.660;25.582;2024-01-27T13:05:11;95532.73;;;0.76;83.34
84026;BME280;74110;45.660;25.582;2024-01-27T13:07:40;95542.71;;;0.77;83.42
84026;BME280;74110;45.660;25.582;2024-01-27T13:10:09;95539.60;;;0.74;83.25
84026;BME280;74110;45.660;25.582;2024-01-27T13:12:37;95545.58;;;0.81;82.25
84026;BME280;74110;45.660;25.582;2024-01-27T13:15:06;95546.54;;;0.87;81.08